sensor_id;sensor_type;location;lat;lon;timestamp;P1;durP1;ratioP1;P2;durP2;ratioP2
8254;SDS011;4167;48.162;11.542;2023-06-26T00:01:35;229.77;;;81.67;;
8254;SDS011;4167;48.162;11.542;2023-06-26T00:04:01;251.83;;;81.33;;
8254;SDS011;4167;48.162;11.542;2023-06-26T00:06:28;266.13;;;82.50;;
8254;SDS011;4167;48.162;11.542;2023-06-26T00:08:55;253.67;;;80.63;;
8254;SDS011;4167;48.162;11.542;2023-06-26T00:11:23;156.60;;;69.70;;
8254;SDS011;4167;48.162;11.542;2023-06-26T00:13:51;199.67;;;75.07;;
8254;SDS011;4167;48.162;11.542;2023-06-26T00:16:17;285.53;;;82.33;;
8254;SDS011;4167;48.162;11.542;2023-06-26T00:18:45;208.63;;;75.10;;
8254;SDS011;4167;48.162;11.542;2023-06-26T00:21:12;285.20;;;78.87;;
8254;SDS011;4167;48.162;11.542;2023-06-26T00:23:38;237.57;;;78.40;;
8254;SDS011;4167;48.162;11.542;2023-06-26T00:26:04;290.10;;;80.83;;
8254;SDS011;4167;48.162;11.542;2023-06-26T00:28:31;200.43;;;72.10;;
8254;SDS011;4167;48.162;11.542;2023-06-26T00:30:57;239.43;;;76.53;;
8254;SDS011;4167;48.162;11.542;2023-06-26T00:33:24;214.53;;;73.07;;
8254;SDS011;4167;48.162;11.542;2023-06-26T00:35:52;246.70;;;77.27;;
8254;SDS011;4167;48.162;11.542;2023-06-26T00:38:18;219.50;;;74.17;;
8254;SDS011;4167;48.162;11.542;2023-06-26T00:40:44;247.93;;;76.00;;
8254;SDS011;4167;48.162;11.542;2023-06-26T00:43:11;278.47;;;77.57;;
8254;SDS011;4167;48.162;11.542;2023-06-26T00:45:37;198.17;;;69.53;;
8254;SDS011;4167;48.162;11.542;2023-06-26T00:48:04;275.63;;;76.37;;
8254;SDS011;4167;48.162;11.542;2023-06-26T00:50:31;194.23;;;69.87;;
8254;SDS011;4167;48.162;11.542;2023-06-26T00:52:59;171.37;;;68.47;;
8254;SDS011;4167;48.162;11.542;2023-06-26T00:55:26;216.43;;;73.23;;
8254;SDS011;4167;48.162;11.542;2023-06-26T00:57:52;204.20;;;70.10;;
8254;SDS011;4167;48.162;11.542;2023-06-26T01:00:19;318.47;;;80.73;;
8254;SDS011;4167;48.162;11.542;2023-06-26T01:02:46;404.73;;;88.10;;
8254;SDS011;4167;48.162;11.542;2023-06-26T01:05:13;328.57;;;81.90;;
8254;SDS011;4167;48.162;11.542;2023-06-26T01:07:46;219.93;;;70.10;;
8254;SDS011;4167;48.162;11.542;2023-06-26T01:10:14;261.33;;;70.83;;
8254;SDS011;4167;48.162;11.542;2023-06-26T01:12:41;205.93;;;71.80;;
8254;SDS011;4167;48.162;11.542;2023-06-26T01:15:08;348.87;;;86.90;;
8254;SDS011;4167;48.162;11.542;2023-06-26T01:17:36;217.10;;;70.27;;
8254;SDS011;4167;48.162;11.542;2023-06-26T01:20:04;222.67;;;69.47;;
8254;SDS011;4167;48.162;11.542;2023-06-26T01:22:34;264.80;;;73.70;;
8254;SDS011;4167;48.162;11.542;2023-06-26T01:25:11;287.40;;;72.43;;
8254;SDS011;4167;48.162;11.542;2023-06-26T01:27:44;188.37;;;63.57;;
8254;SDS011;4167;48.162;11.542;2023-06-26T01:30:11;310.90;;;71.83;;
8254;SDS011;4167;48.162;11.542;2023-06-26T01:32:38;201.10;;;64.23;;
8254;SDS011;4167;48.162;11.542;2023-06-26T01:35:06;258.80;;;67.93;;
8254;SDS011;4167;48.162;11.542;2023-06-26T01:37:33;200.70;;;63.47;;
8254;SDS011;4167;48.162;11.542;2023-06-26T01:40:00;246.20;;;66.03;;
8254;SDS011;4167;48.162;11.542;2023-06-26T01:42:30;193.87;;;63.67;;
8254;SDS011;4167;48.162;11.542;2023-06-26T01:44:58;179.67;;;61.87;;
8254;SDS011;4167;48.162;11.542;2023-06-26T01:47:26;202.47;;;63.63;;
8254;SDS011;4167;48.162;11.542;2023-06-26T01:49:56;194.60;;;62.40;;
8254;SDS011;4167;48.162;11.542;2023-06-26T01:52:26;215.07;;;64.63;;
8254;SDS011;4167;48.162;11.542;2023-06-26T01:54:57;228.47;;;63.93;;
8254;SDS011;4167;48.162;11.542;2023-06-26T01:57:27;197.93;;;62.20;;
8254;SDS011;4167;48.162;11.542;2023-06-26T01:59:54;204.40;;;63.40;;
8254;SDS011;4167;48.162;11.542;2023-06-26T02:02:24;162.63;;;60.23;;
8254;SDS011;4167;48.162;11.542;2023-06-26T02:04:50;194.73;;;62.67;;
8254;SDS011;4167;48.162;11.542;2023-06-26T02:07:17;249.40;;;65.60;;
8254;SDS011;4167;48.162;11.542;2023-06-26T02:09:44;235.53;;;64.40;;
8254;SDS011;4167;48.162;11.542;2023-06-26T02:12:10;231.33;;;65.57;;
8254;SDS011;4167;48.162;11.542;2023-06-26T02:14:37;170.23;;;61.30;;
8254;SDS011;4167;48.162;11.542;2023-06-26T02:17:03;221.23;;;64.17;;
8254;SDS011;4167;48.162;11.542;2023-06-26T02:19:31;165.40;;;60.73;;
8254;SDS011;4167;48.162;11.542;2023-06-26T02:21:58;182.73;;;61.07;;
8254;SDS011;4167;48.162;11.542;2023-06-26T02:24:24;167.13;;;61.27;;
8254;SDS011;4167;48.162;11.542;2023-06-26T02:26:52;203.97;;;63.43;;
8254;SDS011;4167;48.162;11.542;2023-06-26T02:29:18;202.47;;;62.60;;
8254;SDS011;4167;48.162;11.542;2023-06-26T02:31:45;179.17;;;61.50;;
8254;SDS011;4167;48.162;11.542;2023-06-26T02:34:11;218.40;;;63.03;;
8254;SDS011;4167;48.162;11.542;2023-06-26T02:36:39;175.93;;;60.90;;
8254;SDS011;4167;48.162;11.542;2023-06-26T02:39:06;261.83;;;66.57;;
8254;SDS011;4167;48.162;11.542;2023-06-26T02:41:32;202.87;;;62.80;;
8254;SDS011;4167;48.162;11.542;2023-06-26T02:43:58;190.23;;;62.47;;
8254;SDS011;4167;48.162;11.542;2023-06-26T02:46:25;223.63;;;64.30;;
8254;SDS011;4167;48.162;11.542;2023-06-26T02:48:51;204.67;;;63.13;;
8254;SDS011;4167;48.162;11.542;2023-06-26T02:51:18;252.53;;;65.80;;
8254;SDS011;4167;48.162;11.542;2023-06-26T02:53:45;203.47;;;62.43;;
8254;SDS011;4167;48.162;11.542;2023-06-26T02:56:12;272.30;;;67.57;;
8254;SDS011;4167;48.162;11.542;2023-06-26T02:58:38;114.07;;;58.27;;
8254;SDS011;4167;48.162;11.542;2023-06-26T03:01:05;236.13;;;65.53;;
8254;SDS011;4167;48.162;11.542;2023-06-26T03:03:31;204.33;;;62.67;;
8254;SDS011;4167;48.162;11.542;2023-06-26T03:06:05;246.30;;;65.37;;
8254;SDS011;4167;48.162;11.542;2023-06-26T03:08:32;224.37;;;64.30;;
8254;SDS011;4167;48.162;11.542;2023-06-26T03:10:59;159.10;;;60.67;;
8254;SDS011;4167;48.162;11.542;2023-06-26T03:13:26;181.03;;;61.40;;
8254;SDS011;4167;48.162;11.542;2023-06-26T03:15:52;214.70;;;63.87;;
8254;SDS011;4167;48.162;11.542;2023-06-26T03:18:19;211.47;;;63.27;;
8254;SDS011;4167;48.162;11.542;2023-06-26T03:20:45;230.40;;;65.43;;
8254;SDS011;4167;48.162;11.542;2023-06-26T03:23:13;323.57;;;70.93;;
8254;SDS011;4167;48.162;11.542;2023-06-26T03:25:39;176.80;;;61.60;;
8254;SDS011;4167;48.162;11.542;2023-06-26T03:28:07;220.60;;;64.13;;
8254;SDS011;4167;48.162;11.542;2023-06-26T03:30:34;178.00;;;60.77;;
8254;SDS011;4167;48.162;11.542;2023-06-26T03:33:00;206.80;;;63.53;;
8254;SDS011;4167;48.162;11.542;2023-06-26T03:35:26;175.07;;;61.57;;
8254;SDS011;4167;48.162;11.542;2023-06-26T03:37:53;206.67;;;62.97;;
8254;SDS011;4167;48.162;11.542;2023-06-26T03:40:19;216.90;;;65.53;;
8254;SDS011;4167;48.162;11.542;2023-06-26T03:42:46;200.37;;;62.80;;
8254;SDS011;4167;48.162;11.542;2023-06-26T03:45:14;262.23;;;68.50;;
8254;SDS011;4167;48.162;11.542;2023-06-26T03:47:40;186.83;;;63.50;;
8254;SDS011;4167;48.162;11.542;2023-06-26T03:50:07;276.93;;;69.80;;
8254;SDS011;4167;48.162;11.542;2023-06-26T03:52:34;168.87;;;62.40;;
8254;SDS011;4167;48.162;11.542;2023-06-26T03:55:00;281.30;;;69.27;;
8254;SDS011;4167;48.162;11.542;2023-06-26T03:57:27;201.07;;;64.83;;
8254;SDS011;4167;48.162;11.542;2023-06-26T03:59:54;202.97;;;66.43;;
8254;SDS011;4167;48.162;11.542;2023-06-26T04:02:22;235.90;;;70.67;;
8254;SDS011;4167;48.162;11.542;2023-06-26T04:04:48;227.37;;;75.57;;
8254;SDS011;4167;48.162;11.542;2023-06-26T04:07:15;312.00;;;98.43;;
8254;SDS011;4167;48.162;11.542;2023-06-26T04:09:42;222.27;;;85.68;;
8254;SDS011;4167;48.162;11.542;2023-06-26T04:12:08;351.70;;;108.13;;
8254;SDS011;4167;48.162;11.542;2023-06-26T04:14:35;253.35;;;87.03;;
8254;SDS011;4167;48.162;11.542;2023-06-26T04:17:01;313.60;;;94.88;;
8254;SDS011;4167;48.162;11.542;2023-06-26T04:19:29;201.80;;;81.05;;
8254;SDS011;4167;48.162;11.542;2023-06-26T04:21:56;216.20;;;75.93;;
8254;SDS011;4167;48.162;11.542;2023-06-26T04:24:23;264.98;;;77.57;;
8254;SDS011;4167;48.162;11.542;2023-06-26T04:26:50;247.75;;;75.07;;
8254;SDS011;4167;48.162;11.542;2023-06-26T04:29:16;377.35;;;82.18;;
8254;SDS011;4167;48.162;11.542;2023-06-26T04:31:43;220.35;;;71.60;;
8254;SDS011;4167;48.162;11.542;2023-06-26T04:34:11;320.52;;;79.65;;
8254;SDS011;4167;48.162;11.542;2023-06-26T04:36:39;197.48;;;72.53;;
8254;SDS011;4167;48.162;11.542;2023-06-26T04:39:06;363.58;;;82.13;;
8254;SDS011;4167;48.162;11.542;2023-06-26T04:41:32;250.88;;;77.43;;
8254;SDS011;4167;48.162;11.542;2023-06-26T04:43:59;274.80;;;78.03;;
8254;SDS011;4167;48.162;11.542;2023-06-26T04:46:25;294.02;;;79.60;;
8254;SDS011;4167;48.162;11.542;2023-06-26T04:48:52;386.77;;;85.82;;
8254;SDS011;4167;48.162;11.542;2023-06-26T04:51:19;256.48;;;77.47;;
8254;SDS011;4167;48.162;11.542;2023-06-26T04:53:47;373.17;;;85.55;;
8254;SDS011;4167;48.162;11.542;2023-06-26T04:56:14;274.42;;;78.10;;
8254;SDS011;4167;48.162;11.542;2023-06-26T04:58:40;219.18;;;76.30;;
8254;SDS011;4167;48.162;11.542;2023-06-26T05:01:07;221.48;;;76.93;;
8254;SDS011;4167;48.162;11.542;2023-06-26T05:03:34;223.23;;;76.50;;
8254;SDS011;4167;48.162;11.542;2023-06-26T05:06:01;228.60;;;76.60;;
8254;SDS011;4167;48.162;11.542;2023-06-26T05:08:27;225.40;;;77.15;;
8254;SDS011;4167;48.162;11.542;2023-06-26T05:10:55;259.05;;;85.88;;
8254;SDS011;4167;48.162;11.542;2023-06-26T05:13:23;265.73;;;79.75;;
8254;SDS011;4167;48.162;11.542;2023-06-26T05:15:49;173.88;;;73.45;;
8254;SDS011;4167;48.162;11.542;2023-06-26T05:18:16;287.70;;;79.63;;
8254;SDS011;4167;48.162;11.542;2023-06-26T05:20:42;208.65;;;74.45;;
8254;SDS011;4167;48.162;11.542;2023-06-26T05:23:10;359.15;;;82.88;;
8254;SDS011;4167;48.162;11.542;2023-06-26T05:25:37;240.15;;;75.65;;
8254;SDS011;4167;48.162;11.542;2023-06-26T05:28:06;319.83;;;80.78;;
8254;SDS011;4167;48.162;11.542;2023-06-26T05:30:35;253.88;;;77.75;;
8254;SDS011;4167;48.162;11.542;2023-06-26T05:33:02;367.02;;;84.28;;
8254;SDS011;4167;48.162;11.542;2023-06-26T05:35:31;302.80;;;80.22;;
8254;SDS011;4167;48.162;11.542;2023-06-26T05:37:58;305.60;;;80.15;;
8254;SDS011;4167;48.162;11.542;2023-06-26T05:40:25;270.92;;;78.15;;
8254;SDS011;4167;48.162;11.542;2023-06-26T05:42:52;352.55;;;82.78;;
8254;SDS011;4167;48.162;11.542;2023-06-26T05:45:20;468.33;;;90.05;;
8254;SDS011;4167;48.162;11.542;2023-06-26T05:47:47;207.23;;;75.05;;
8254;SDS011;4167;48.162;11.542;2023-06-26T05:50:15;288.75;;;79.30;;
8254;SDS011;4167;48.162;11.542;2023-06-26T05:52:43;261.55;;;76.18;;
8254;SDS011;4167;48.162;11.542;2023-06-26T05:55:10;268.70;;;78.25;;
8254;SDS011;4167;48.162;11.542;2023-06-26T05:57:38;211.00;;;75.03;;
8254;SDS011;4167;48.162;11.542;2023-06-26T06:00:06;332.00;;;81.78;;
8254;SDS011;4167;48.162;11.542;2023-06-26T06:02:38;247.18;;;77.60;;
8254;SDS011;4167;48.162;11.542;2023-06-26T06:05:05;304.35;;;81.50;;
8254;SDS011;4167;48.162;11.542;2023-06-26T06:07:32;267.17;;;80.05;;
8254;SDS011;4167;48.162;11.542;2023-06-26T06:10:05;424.55;;;90.35;;
8254;SDS011;4167;48.162;11.542;2023-06-26T06:12:32;285.52;;;80.28;;
8254;SDS011;4167;48.162;11.542;2023-06-26T06:14:59;316.95;;;84.18;;
8254;SDS011;4167;48.162;11.542;2023-06-26T06:27:41;363.40;;;89.32;;
8254;SDS011;4167;48.162;11.542;2023-06-26T06:30:08;341.42;;;87.90;;
8254;SDS011;4167;48.162;11.542;2023-06-26T06:32:35;354.02;;;89.28;;
8254;SDS011;4167;48.162;11.542;2023-06-26T06:35:02;247.75;;;83.85;;
8254;SDS011;4167;48.162;11.542;2023-06-26T06:37:34;288.23;;;85.63;;
8254;SDS011;4167;48.162;11.542;2023-06-26T06:40:01;241.00;;;85.32;;
8254;SDS011;4167;48.162;11.542;2023-06-26T06:42:28;268.65;;;85.10;;
8254;SDS011;4167;48.162;11.542;2023-06-26T06:44:56;381.73;;;91.57;;
8254;SDS011;4167;48.162;11.542;2023-06-26T06:47:23;290.38;;;87.30;;
8254;SDS011;4167;48.162;11.542;2023-06-26T06:49:49;310.77;;;87.93;;
8254;SDS011;4167;48.162;11.542;2023-06-26T06:52:16;293.30;;;88.45;;
8254;SDS011;4167;48.162;11.542;2023-06-26T06:54:51;260.20;;;84.78;;
8254;SDS011;4167;48.162;11.542;2023-06-26T06:57:19;299.55;;;87.97;;
8254;SDS011;4167;48.162;11.542;2023-06-26T06:59:45;287.80;;;87.82;;
8254;SDS011;4167;48.162;11.542;2023-06-26T07:02:13;291.50;;;87.65;;
8254;SDS011;4167;48.162;11.542;2023-06-26T07:04:40;296.10;;;86.97;;
8254;SDS011;4167;48.162;11.542;2023-06-26T07:07:06;263.42;;;87.65;;
8254;SDS011;4167;48.162;11.542;2023-06-26T07:09:33;310.08;;;89.10;;
8254;SDS011;4167;48.162;11.542;2023-06-26T07:12:00;304.10;;;88.93;;
8254;SDS011;4167;48.162;11.542;2023-06-26T07:14:26;265.70;;;87.03;;
8254;SDS011;4167;48.162;11.542;2023-06-26T07:16:52;248.88;;;87.40;;
8254;SDS011;4167;48.162;11.542;2023-06-26T07:19:20;262.88;;;87.32;;
8254;SDS011;4167;48.162;11.542;2023-06-26T07:21:47;285.65;;;88.75;;
8254;SDS011;4167;48.162;11.542;2023-06-26T07:24:13;286.13;;;88.18;;
8254;SDS011;4167;48.162;11.542;2023-06-26T07:26:40;273.85;;;88.60;;
8254;SDS011;4167;48.162;11.542;2023-06-26T07:29:06;319.75;;;90.93;;
8254;SDS011;4167;48.162;11.542;2023-06-26T07:31:33;250.65;;;87.72;;
8254;SDS011;4167;48.162;11.542;2023-06-26T07:33:59;231.15;;;87.25;;
8254;SDS011;4167;48.162;11.542;2023-06-26T07:36:27;361.98;;;94.53;;
8254;SDS011;4167;48.162;11.542;2023-06-26T07:38:54;239.68;;;87.10;;
8254;SDS011;4167;48.162;11.542;2023-06-26T07:41:20;337.50;;;94.00;;
8254;SDS011;4167;48.162;11.542;2023-06-26T07:43:47;297.92;;;91.97;;
8254;SDS011;4167;48.162;11.542;2023-06-26T07:46:13;254.77;;;90.13;;
8254;SDS011;4167;48.162;11.542;2023-06-26T07:48:40;338.95;;;94.05;;
8254;SDS011;4167;48.162;11.542;2023-06-26T07:51:06;268.98;;;90.65;;
8254;SDS011;4167;48.162;11.542;2023-06-26T07:53:34;260.95;;;88.93;;
8254;SDS011;4167;48.162;11.542;2023-06-26T07:56:00;250.23;;;88.60;;
8254;SDS011;4167;48.162;11.542;2023-06-26T07:58:27;252.43;;;89.35;;
8254;SDS011;4167;48.162;11.542;2023-06-26T08:00:53;242.80;;;88.82;;
8254;SDS011;4167;48.162;11.542;2023-06-26T08:03:20;281.58;;;91.55;;
8254;SDS011;4167;48.162;11.542;2023-06-26T08:05:46;243.57;;;88.93;;
8254;SDS011;4167;48.162;11.542;2023-06-26T08:08:13;318.48;;;94.13;;
8254;SDS011;4167;48.162;11.542;2023-06-26T08:10:41;258.67;;;89.63;;
8254;SDS011;4167;48.162;11.542;2023-06-26T08:13:07;241.90;;;88.82;;
8254;SDS011;4167;48.162;11.542;2023-06-26T08:15:34;274.00;;;89.70;;
8254;SDS011;4167;48.162;11.542;2023-06-26T08:18:00;313.70;;;92.57;;
8254;SDS011;4167;48.162;11.542;2023-06-26T08:20:27;308.52;;;93.32;;
8254;SDS011;4167;48.162;11.542;2023-06-26T08:22:54;250.13;;;88.05;;
8254;SDS011;4167;48.162;11.542;2023-06-26T08:25:20;247.60;;;88.25;;
8254;SDS011;4167;48.162;11.542;2023-06-26T08:27:48;202.43;;;85.25;;
8254;SDS011;4167;48.162;11.542;2023-06-26T08:30:17;290.55;;;90.20;;
8254;SDS011;4167;48.162;11.542;2023-06-26T08:32:44;194.55;;;83.78;;
8254;SDS011;4167;48.162;11.542;2023-06-26T08:35:10;277.30;;;88.72;;
8254;SDS011;4167;48.162;11.542;2023-06-26T08:37:37;328.02;;;89.75;;
8254;SDS011;4167;48.162;11.542;2023-06-26T08:40:04;306.42;;;86.88;;
8254;SDS011;4167;48.162;11.542;2023-06-26T08:42:31;316.80;;;86.60;;
8254;SDS011;4167;48.162;11.542;2023-06-26T08:44:59;302.98;;;83.40;;
8254;SDS011;4167;48.162;11.542;2023-06-26T08:47:25;282.13;;;81.63;;
8254;SDS011;4167;48.162;11.542;2023-06-26T08:49:53;354.75;;;85.35;;
8254;SDS011;4167;48.162;11.542;2023-06-26T08:52:28;274.38;;;79.30;;
8254;SDS011;4167;48.162;11.542;2023-06-26T08:54:58;255.75;;;77.43;;
8254;SDS011;4167;48.162;11.542;2023-06-26T08:57:25;281.38;;;76.65;;
8254;SDS011;4167;48.162;11.542;2023-06-26T08:59:52;302.65;;;78.85;;
8254;SDS011;4167;48.162;11.542;2023-06-26T09:02:20;310.75;;;77.80;;
8254;SDS011;4167;48.162;11.542;2023-06-26T09:04:47;288.85;;;76.70;;
8254;SDS011;4167;48.162;11.542;2023-06-26T09:07:14;341.10;;;78.93;;
8254;SDS011;4167;48.162;11.542;2023-06-26T09:09:40;228.90;;;72.45;;
8254;SDS011;4167;48.162;11.542;2023-06-26T09:12:07;278.35;;;74.40;;
8254;SDS011;4167;48.162;11.542;2023-06-26T09:14:34;249.30;;;73.57;;
8254;SDS011;4167;48.162;11.542;2023-06-26T09:17:01;295.88;;;75.93;;
8254;SDS011;4167;48.162;11.542;2023-06-26T09:19:29;429.63;;;84.60;;
8254;SDS011;4167;48.162;11.542;2023-06-26T09:21:56;264.38;;;72.70;;
8254;SDS011;4167;48.162;11.542;2023-06-26T09:24:23;338.95;;;77.82;;
8254;SDS011;4167;48.162;11.542;2023-06-26T09:26:50;249.52;;;72.10;;
8254;SDS011;4167;48.162;11.542;2023-06-26T09:29:17;318.23;;;75.50;;
8254;SDS011;4167;48.162;11.542;2023-06-26T09:31:44;285.52;;;73.55;;
8254;SDS011;4167;48.162;11.542;2023-06-26T09:34:10;212.73;;;69.65;;
8254;SDS011;4167;48.162;11.542;2023-06-26T09:36:38;395.55;;;79.93;;
8254;SDS011;4167;48.162;11.542;2023-06-26T09:39:07;260.27;;;71.95;;
8254;SDS011;4167;48.162;11.542;2023-06-26T09:41:36;241.07;;;70.75;;
8254;SDS011;4167;48.162;11.542;2023-06-26T09:44:03;310.92;;;74.53;;
8254;SDS011;4167;48.162;11.542;2023-06-26T09:46:30;320.40;;;75.30;;
8254;SDS011;4167;48.162;11.542;2023-06-26T09:49:01;224.80;;;70.40;;
8254;SDS011;4167;48.162;11.542;2023-06-26T09:51:29;195.05;;;67.38;;
8254;SDS011;4167;48.162;11.542;2023-06-26T09:53:58;227.23;;;68.63;;
8254;SDS011;4167;48.162;11.542;2023-06-26T09:56:24;312.02;;;73.68;;
8254;SDS011;4167;48.162;11.542;2023-06-26T09:58:51;367.85;;;76.45;;
8254;SDS011;4167;48.162;11.542;2023-06-26T10:01:17;339.50;;;74.13;;
8254;SDS011;4167;48.162;11.542;2023-06-26T10:03:44;344.15;;;74.20;;
8254;SDS011;4167;48.162;11.542;2023-06-26T10:06:11;370.65;;;75.78;;
8254;SDS011;4167;48.162;11.542;2023-06-26T10:08:38;396.17;;;78.47;;
8254;SDS011;4167;48.162;11.542;2023-06-26T10:11:07;291.38;;;72.57;;
8254;SDS011;4167;48.162;11.542;2023-06-26T10:13:34;308.23;;;72.43;;
8254;SDS011;4167;48.162;11.542;2023-06-26T10:16:03;253.07;;;69.80;;
8254;SDS011;4167;48.162;11.542;2023-06-26T10:18:31;298.38;;;72.75;;
8254;SDS011;4167;48.162;11.542;2023-06-26T10:20:58;218.18;;;68.95;;
8254;SDS011;4167;48.162;11.542;2023-06-26T10:23:26;282.65;;;71.15;;
8254;SDS011;4167;48.162;11.542;2023-06-26T10:25:54;237.98;;;69.13;;
8254;SDS011;4167;48.162;11.542;2023-06-26T10:28:23;397.75;;;77.47;;
8254;SDS011;4167;48.162;11.542;2023-06-26T10:30:50;315.73;;;74.10;;
8254;SDS011;4167;48.162;11.542;2023-06-26T10:33:18;325.15;;;73.60;;
8254;SDS011;4167;48.162;11.542;2023-06-26T10:35:45;287.60;;;72.13;;
8254;SDS011;4167;48.162;11.542;2023-06-26T10:38:12;280.80;;;71.85;;
8254;SDS011;4167;48.162;11.542;2023-06-26T10:40:42;254.43;;;69.65;;
8254;SDS011;4167;48.162;11.542;2023-06-26T10:43:09;248.15;;;69.88;;
8254;SDS011;4167;48.162;11.542;2023-06-26T10:45:42;213.05;;;67.97;;
8254;SDS011;4167;48.162;11.542;2023-06-26T10:48:09;374.92;;;77.15;;
8254;SDS011;4167;48.162;11.542;2023-06-26T10:50:36;203.50;;;67.85;;
8254;SDS011;4167;48.162;11.542;2023-06-26T10:53:10;317.73;;;74.03;;
8254;SDS011;4167;48.162;11.542;2023-06-26T10:55:41;306.15;;;72.80;;
8254;SDS011;4167;48.162;11.542;2023-06-26T10:58:22;425.50;;;79.95;;
8254;SDS011;4167;48.162;11.542;2023-06-26T11:00:54;235.65;;;68.50;;
8254;SDS011;4167;48.162;11.542;2023-06-26T11:03:41;228.43;;;67.85;;
8254;SDS011;4167;48.162;11.542;2023-06-26T11:06:11;315.25;;;72.85;;
8254;SDS011;4167;48.162;11.542;2023-06-26T11:08:44;296.55;;;71.70;;
8254;SDS011;4167;48.162;11.542;2023-06-26T11:11:11;329.45;;;74.15;;
8254;SDS011;4167;48.162;11.542;2023-06-26T11:13:37;359.63;;;75.63;;
8254;SDS011;4167;48.162;11.542;2023-06-26T11:16:06;297.20;;;71.68;;
8254;SDS011;4167;48.162;11.542;2023-06-26T11:18:32;521.25;;;85.32;;
8254;SDS011;4167;48.162;11.542;2023-06-26T11:21:04;242.30;;;69.10;;
8254;SDS011;4167;48.162;11.542;2023-06-26T11:23:31;304.33;;;73.13;;
8254;SDS011;4167;48.162;11.542;2023-06-26T11:26:12;343.02;;;76.20;;
8254;SDS011;4167;48.162;11.542;2023-06-26T11:28:39;334.70;;;75.38;;
8254;SDS011;4167;48.162;11.542;2023-06-26T11:31:24;322.75;;;74.13;;
8254;SDS011;4167;48.162;11.542;2023-06-26T11:33:52;269.45;;;70.70;;
8254;SDS011;4167;48.162;11.542;2023-06-26T11:36:19;244.32;;;70.72;;
8254;SDS011;4167;48.162;11.542;2023-06-26T11:38:45;231.13;;;69.03;;
8254;SDS011;4167;48.162;11.542;2023-06-26T11:41:16;304.10;;;73.40;;
8254;SDS011;4167;48.162;11.542;2023-06-26T11:43:43;350.75;;;76.82;;
8254;SDS011;4167;48.162;11.542;2023-06-26T11:46:09;363.92;;;76.85;;
8254;SDS011;4167;48.162;11.542;2023-06-26T11:48:37;391.13;;;78.70;;
8254;SDS011;4167;48.162;11.542;2023-06-26T11:51:05;343.95;;;75.30;;
8254;SDS011;4167;48.162;11.542;2023-06-26T11:53:31;328.20;;;74.53;;
8254;SDS011;4167;48.162;11.542;2023-06-26T11:55:58;260.63;;;70.07;;
8254;SDS011;4167;48.162;11.542;2023-06-26T11:58:24;327.88;;;75.38;;
8254;SDS011;4167;48.162;11.542;2023-06-26T12:00:51;321.38;;;74.03;;
8254;SDS011;4167;48.162;11.542;2023-06-26T12:03:17;219.82;;;69.15;;
8254;SDS011;4167;48.162;11.542;2023-06-26T12:05:45;234.98;;;69.22;;
8254;SDS011;4167;48.162;11.542;2023-06-26T12:08:12;403.33;;;78.50;;
8254;SDS011;4167;48.162;11.542;2023-06-26T12:10:39;257.33;;;70.72;;
8254;SDS011;4167;48.162;11.542;2023-06-26T12:13:05;334.60;;;74.30;;
8254;SDS011;4167;48.162;11.542;2023-06-26T12:15:31;304.38;;;73.68;;
8254;SDS011;4167;48.162;11.542;2023-06-26T12:17:58;338.95;;;75.07;;
8254;SDS011;4167;48.162;11.542;2023-06-26T12:20:25;246.45;;;70.13;;
8254;SDS011;4167;48.162;11.542;2023-06-26T12:22:53;296.98;;;72.53;;
8254;SDS011;4167;48.162;11.542;2023-06-26T12:25:22;237.75;;;70.47;;
8254;SDS011;4167;48.162;11.542;2023-06-26T12:27:49;256.58;;;70.22;;
8254;SDS011;4167;48.162;11.542;2023-06-26T12:30:16;372.95;;;77.90;;
8254;SDS011;4167;48.162;11.542;2023-06-26T12:32:44;216.80;;;69.05;;
8254;SDS011;4167;48.162;11.542;2023-06-26T12:35:11;264.85;;;70.18;;
8254;SDS011;4167;48.162;11.542;2023-06-26T12:37:37;338.25;;;75.57;;
8254;SDS011;4167;48.162;11.542;2023-06-26T12:40:09;301.30;;;73.80;;
8254;SDS011;4167;48.162;11.542;2023-06-26T12:42:42;270.10;;;71.85;;
8254;SDS011;4167;48.162;11.542;2023-06-26T12:45:12;313.40;;;74.75;;
8254;SDS011;4167;48.162;11.542;2023-06-26T12:47:40;278.98;;;72.10;;
8254;SDS011;4167;48.162;11.542;2023-06-26T12:50:07;279.38;;;71.88;;
8254;SDS011;4167;48.162;11.542;2023-06-26T12:52:34;428.20;;;80.85;;
8254;SDS011;4167;48.162;11.542;2023-06-26T12:55:00;253.35;;;70.45;;
8254;SDS011;4167;48.162;11.542;2023-06-26T12:57:28;321.75;;;74.50;;
8254;SDS011;4167;48.162;11.542;2023-06-26T12:59:55;411.08;;;78.82;;
8254;SDS011;4167;48.162;11.542;2023-06-26T13:02:21;282.42;;;72.72;;
8254;SDS011;4167;48.162;11.542;2023-06-26T13:04:47;282.08;;;72.72;;
8254;SDS011;4167;48.162;11.542;2023-06-26T13:07:14;378.88;;;77.75;;
8254;SDS011;4167;48.162;11.542;2023-06-26T13:09:40;341.60;;;75.05;;
8254;SDS011;4167;48.162;11.542;2023-06-26T13:12:07;301.88;;;73.50;;
8254;SDS011;4167;48.162;11.542;2023-06-26T13:14:35;371.00;;;77.10;;
8254;SDS011;4167;48.162;11.542;2023-06-26T13:17:03;305.75;;;73.88;;
8254;SDS011;4167;48.162;11.542;2023-06-26T13:19:30;289.17;;;72.88;;
8254;SDS011;4167;48.162;11.542;2023-06-26T13:21:56;345.90;;;75.18;;
8254;SDS011;4167;48.162;11.542;2023-06-26T13:24:23;282.63;;;71.65;;
8254;SDS011;4167;48.162;11.542;2023-06-26T13:26:49;320.27;;;74.88;;
8254;SDS011;4167;48.162;11.542;2023-06-26T13:29:16;307.48;;;74.57;;
8254;SDS011;4167;48.162;11.542;2023-06-26T13:31:44;343.92;;;75.78;;
8254;SDS011;4167;48.162;11.542;2023-06-26T13:34:19;306.00;;;73.25;;
8254;SDS011;4167;48.162;11.542;2023-06-26T13:36:46;299.60;;;73.15;;
8254;SDS011;4167;48.162;11.542;2023-06-26T13:39:13;360.58;;;75.85;;
8254;SDS011;4167;48.162;11.542;2023-06-26T13:41:40;303.02;;;72.35;;
8254;SDS011;4167;48.162;11.542;2023-06-26T13:44:06;358.48;;;76.47;;
8254;SDS011;4167;48.162;11.542;2023-06-26T13:46:33;474.58;;;82.45;;
8254;SDS011;4167;48.162;11.542;2023-06-26T13:49:00;340.10;;;75.30;;
8254;SDS011;4167;48.162;11.542;2023-06-26T13:51:27;430.40;;;80.57;;
8254;SDS011;4167;48.162;11.542;2023-06-26T13:53:53;360.58;;;76.20;;
8254;SDS011;4167;48.162;11.542;2023-06-26T13:56:25;349.30;;;75.63;;
8254;SDS011;4167;48.162;11.542;2023-06-26T13:58:51;359.98;;;76.38;;
8254;SDS011;4167;48.162;11.542;2023-06-26T14:01:17;379.15;;;77.88;;
8254;SDS011;4167;48.162;11.542;2023-06-26T14:03:44;261.30;;;70.88;;
8254;SDS011;4167;48.162;11.542;2023-06-26T14:06:12;458.50;;;82.63;;
8254;SDS011;4167;48.162;11.542;2023-06-26T14:08:39;351.67;;;75.63;;
8254;SDS011;4167;48.162;11.542;2023-06-26T14:11:05;258.20;;;70.63;;
8254;SDS011;4167;48.162;11.542;2023-06-26T14:13:32;419.02;;;79.72;;
8254;SDS011;4167;48.162;11.542;2023-06-26T14:15:58;241.75;;;69.85;;
8254;SDS011;4167;48.162;11.542;2023-06-26T14:18:24;292.45;;;71.93;;
8254;SDS011;4167;48.162;11.542;2023-06-26T14:20:53;285.02;;;73.32;;
8254;SDS011;4167;48.162;11.542;2023-06-26T14:23:21;311.05;;;73.30;;
8254;SDS011;4167;48.162;11.542;2023-06-26T14:25:47;298.48;;;73.00;;
8254;SDS011;4167;48.162;11.542;2023-06-26T14:28:13;380.98;;;77.40;;
8254;SDS011;4167;48.162;11.542;2023-06-26T14:30:40;295.17;;;73.68;;
8254;SDS011;4167;48.162;11.542;2023-06-26T14:33:06;253.07;;;71.45;;